Time;durP1;ratioP1;P1;durP2;ratioP2;P2;SDS_P1;SDS_P2;PMS_P1;PMS_P2;Temp;Humidity;BMP_temperature;BMP_pressure;BME280_temperature;BME280_humidity;BME280_pressure;Samples;Min_cycle;Max_cycle;Signal;HPM_P1;HPM_P2
2023/10/25 08:34:02;;;;;;;3.00;2.80;;;8.60;99.90;;;;;;4999203;28;20147;-94
2023/10/25 08:38:10;;;;;;;3.83;2.93;;;8.70;99.90;;;;;;4964708;28;20333;-93
2023/10/25 08:40:40;;;;;;;3.40;3.10;;;8.80;99.90;;;;;;4949000;28;20205;-93
2023/10/25 08:43:07;;;;;;;4.07;3.10;;;8.80;99.90;;;;;;4979554;28;20172;-93
2023/10/25 08:45:35;;;;;;;5.23;3.17;;;8.80;99.90;;;;;;4978439;28;20222;-93
2023/10/25 08:48:04;;;;;;;4.33;3.93;;;8.80;99.90;;;;;;4997186;28;20200;-93
2023/10/25 08:50:31;;;;;;;4.20;3.80;;;8.90;99.90;;;;;;4981022;28;20180;-92
2023/10/25 08:52:59;;;;;;;6.40;4.43;;;8.90;99.90;;;;;;4981106;28;20179;-93
2023/10/25 08:55:27;;;;;;;3.90;3.50;;;9.00;99.90;;;;;;4982853;28;20179;-94
2023/10/25 08:57:56;;;;;;;5.00;4.50;;;9.00;99.90;;;;;;4989231;28;20203;-93
2023/10/25 09:00:24;;;;;;;4.90;4.40;;;9.00;99.90;;;;;;4990162;28;20264;-93
2023/10/25 09:02:50;;;;;;;4.20;3.80;;;9.10;99.90;;;;;;4992257;28;20179;-94
2023/10/25 09:05:16;;;;;;;4.93;4.43;;;9.10;99.90;;;;;;5009109;28;20226;-95
2023/10/25 09:10:29;;;;;;;5.03;4.53;;;9.20;99.90;;;;;;4979149;28;20239;-36
2023/10/25 09:12:55;;;;;;;4.03;3.63;;;9.10;99.90;;;;;;4985334;28;20176;-33
2023/10/25 09:15:31;;;;;;;4.47;3.93;;;9.10;99.90;;;;;;4968443;28;20184;-37
2023/10/25 09:17:58;;;;;;;4.97;4.20;;;9.20;99.90;;;;;;4986386;28;20271;-33
2023/10/25 09:20:27;;;;;;;5.63;4.23;;;9.10;99.90;;;;;;4970202;28;20203;-33
2023/10/25 09:23:07;;;;;;;4.40;4.00;;;9.20;99.90;;;;;;4985118;28;20184;-39
2023/10/25 09:25:33;;;;;;;4.80;4.40;;;9.20;99.90;;;;;;4956236;28;20204;-38
2023/10/25 09:27:59;;;;;;;4.33;3.93;;;9.30;99.90;;;;;;4946054;28;20177;-33
2023/10/25 09:30:29;;;;;;;4.57;4.10;;;9.30;99.90;;;;;;4965872;28;20223;-36
2023/10/25 09:32:56;;;;;;;4.57;4.17;;;9.50;99.90;;;;;;4965138;28;20218;-38
2023/10/25 09:35:23;;;;;;;4.40;4.00;;;9.60;99.90;;;;;;4977604;28;20195;-37
2023/10/25 09:37:49;;;;;;;4.50;4.10;;;9.70;99.90;;;;;;4976920;28;20284;-35
2023/10/25 09:40:15;;;;;;;4.20;3.73;;;9.80;99.90;;;;;;4977335;28;20231;-37
2023/10/25 09:42:48;;;;;;;4.23;3.87;;;10.00;99.90;;;;;;4976910;28;20224;-37
2023/10/25 09:45:20;;;;;;;4.20;3.87;;;10.10;99.90;;;;;;4976859;28;20203;-34
2023/10/25 09:47:48;;;;;;;4.47;4.07;;;10.20;99.90;;;;;;4960809;28;20181;-35
2023/10/25 09:50:25;;;;;;;4.83;3.50;;;10.20;99.90;;;;;;4976876;28;20208;-35
2023/10/25 09:53:00;;;;;;;4.33;4.00;;;10.30;99.90;;;;;;4977465;28;20172;-37
2023/10/25 09:55:31;;;;;;;3.90;3.60;;;10.50;99.90;;;;;;4977139;28;20191;-36
2023/10/25 09:57:59;;;;;;;4.37;4.07;;;10.50;99.90;;;;;;4959656;28;20185;-36
2023/10/25 10:00:25;;;;;;;4.70;4.20;;;10.60;99.90;;;;;;4976701;28;20272;-35
2023/10/25 10:03:01;;;;;;;6.07;5.00;;;10.60;99.90;;;;;;4993027;28;20196;-33
2023/10/25 10:05:34;;;;;;;5.57;4.63;;;10.70;99.90;;;;;;4968481;28;20204;-36
2023/10/25 10:08:17;;;;;;;5.20;4.70;;;10.80;99.90;;;;;;4963637;28;20181;-32
2023/10/25 10:10:52;;;;;;;5.50;4.97;;;10.90;99.90;;;;;;4963530;28;20211;-32
2023/10/25 10:13:20;;;;;;;6.13;4.80;;;11.00;99.90;;;;;;4963253;28;20185;-40
2023/10/25 10:16:08;;;;;;;3.67;3.37;;;11.10;99.90;;;;;;4989292;28;20315;-37
2023/10/25 10:18:36;;;;;;;3.70;3.40;;;11.20;99.90;;;;;;4974065;28;20213;-34
2023/10/25 10:21:06;;;;;;;3.60;3.30;;;11.20;99.90;;;;;;4962098;28;20228;-37
2023/10/25 10:23:53;;;;;;;3.10;2.90;;;11.30;99.90;;;;;;4972147;28;20653;-36
2023/10/25 10:26:46;;;;;;;3.33;3.03;;;11.40;99.90;;;;;;4959982;28;20214;-37
2023/10/25 10:29:30;;;;;;;3.00;2.80;;;11.50;99.90;;;;;;4971871;28;20187;-37
2023/10/25 10:32:04;;;;;;;3.50;3.20;;;11.50;99.90;;;;;;4972660;28;20225;-36
2023/10/25 10:34:57;;;;;;;3.40;3.10;;;11.60;99.90;;;;;;4957039;28;20223;-34
2023/10/25 10:37:31;;;;;;;2.77;2.57;;;11.70;99.90;;;;;;4959983;28;20186;-37
2023/10/25 10:39:57;;;;;;;2.80;2.60;;;11.70;99.90;;;;;;4963079;28;20184;-37
2023/10/25 10:42:41;;;;;;;3.50;3.20;;;11.80;99.90;;;;;;4969867;28;20176;-38
2023/10/25 10:45:13;;;;;;;2.63;2.43;;;11.90;99.90;;;;;;4959837;28;20278;-37
2023/10/25 10:48:02;;;;;;;2.70;2.40;;;11.90;99.90;;;;;;4940956;28;20191;-36
2023/10/25 10:50:28;;;;;;;2.67;2.43;;;12.00;99.90;;;;;;4947358;28;20210;-32
2023/10/25 10:52:54;;;;;;;2.70;2.30;;;12.10;99.90;;;;;;4974450;28;20175;-34
2023/10/25 10:55:22;;;;;;;3.13;2.73;;;12.20;99.90;;;;;;4960105;28;20176;-38
2023/10/25 10:57:48;;;;;;;3.50;3.20;;;12.30;99.90;;;;;;4973733;28;20249;-33
2023/10/25 11:00:18;;;;;;;3.27;2.97;;;12.40;99.90;;;;;;4970567;28;20204;-35
2023/10/25 11:02:49;;;;;;;3.17;2.90;;;12.50;99.90;;;;;;4970429;28;20223;-38
2023/10/25 11:05:16;;;;;;;4.57;3.30;;;12.60;99.90;;;;;;4959885;28;20232;-34
2023/10/25 11:07:42;;;;;;;3.57;3.00;;;12.70;99.90;;;;;;4940553;28;20181;-35
2023/10/25 11:10:10;;;;;;;3.57;2.57;;;12.80;99.90;;;;;;4965473;28;20187;-35
2023/10/25 11:12:36;;;;;;;3.20;2.70;;;13.00;99.90;;;;;;4959940;28;20193;-36
2023/10/25 11:15:04;;;;;;;3.50;2.00;;;13.10;99.90;;;;;;4967916;28;20188;-36
2023/10/25 11:17:30;;;;;;;2.00;1.60;;;13.30;99.90;;;;;;4950783;28;20204;-38
2023/10/25 11:19:56;;;;;;;2.07;1.87;;;13.50;99.90;;;;;;4965991;28;20184;-33
2023/10/25 11:22:22;;;;;;;2.27;2.03;;;13.60;99.90;;;;;;4962669;28;20195;-34
2023/10/25 11:24:53;;;;;;;2.43;2.23;;;13.80;99.90;;;;;;4950882;28;20214;-39
2023/10/25 11:27:19;;;;;;;1.87;1.60;;;14.00;99.90;;;;;;4977577;28;20208;-36
2023/10/25 11:29:48;;;;;;;1.80;1.43;;;14.20;99.90;;;;;;4961288;28;20176;-33
2023/10/25 11:32:15;;;;;;;4.67;1.70;;;14.40;99.90;;;;;;4962663;28;20222;-36
2023/10/25 11:34:42;;;;;;;0.93;0.90;;;14.70;99.90;;;;;;4974901;28;20194;-32
2023/10/25 11:37:09;;;;;;;2.23;1.00;;;15.10;99.90;;;;;;4962661;28;20294;-33
2023/10/25 11:39:58;;;;;;;1.03;0.90;;;15.40;99.90;;;;;;4986871;28;20183;-34
2023/10/25 11:42:33;;;;;;;1.77;0.80;;;15.80;99.90;;;;;;4986504;28;20187;-35
2023/10/25 11:45:00;;;;;;;2.05;0.90;;;16.00;99.90;;;;;;4966070;28;20207;-34
2023/10/25 11:47:27;;;;;;;1.30;0.90;;;16.00;99.90;;;;;;4951167;28;20189;-35
2023/10/25 11:49:57;;;;;;;1.83;1.20;;;16.00;99.90;;;;;;4950264;28;20176;-36
2023/10/25 11:52:25;;;;;;;1.40;1.00;;;15.90;99.90;;;;;;4968247;28;20177;-37
2023/10/25 11:54:55;;;;;;;2.53;1.15;;;15.90;99.90;;;;;;4974568;28;20184;-38
2023/10/25 11:57:27;;;;;;;0.95;0.70;;;15.80;99.90;;;;;;4964456;28;20207;-35
2023/10/25 11:59:53;;;;;;;1.13;0.80;;;15.80;99.90;;;;;;4951028;28;20188;-38
2023/10/25 12:02:22;;;;;;;0.80;0.80;;;15.70;99.90;;;;;;4956039;28;20188;-33
2023/10/25 12:04:48;;;;;;;0.95;0.77;;;15.70;99.90;;;;;;4956333;28;20196;-36
2023/10/25 12:07:14;;;;;;;0.90;0.88;;;15.70;99.90;;;;;;4967980;28;20180;-36
2023/10/25 12:09:42;;;;;;;1.67;0.90;;;15.70;99.90;;;;;;4947777;28;20184;-33
2023/10/25 12:12:10;;;;;;;0.95;0.70;;;15.70;99.90;;;;;;4947374;28;20192;-34
2023/10/25 12:14:36;;;;;;;0.90;0.90;;;15.60;99.90;;;;;;4991373;28;20172;-38
2023/10/25 12:17:03;;;;;;;1.80;0.90;;;15.60;99.90;;;;;;4967926;28;20172;-38
2023/10/25 12:19:29;;;;;;;1.08;0.98;;;15.60;99.90;;;;;;4973443;28;20184;-35
2023/10/25 12:21:58;;;;;;;3.90;0.93;;;15.70;99.90;;;;;;4964120;28;20354;-35
2023/10/25 12:24:27;;;;;;;2.23;0.80;;;15.70;99.90;;;;;;4956033;28;20182;-35
2023/10/25 12:26:53;;;;;;;0.88;0.88;;;15.70;99.90;;;;;;4976386;28;20541;-36
2023/10/25 12:29:19;;;;;;;1.92;0.80;;;15.80;99.90;;;;;;4951769;28;20176;-35
2023/10/25 12:31:45;;;;;;;0.73;0.73;;;15.70;99.90;;;;;;4964350;28;20351;-35
2023/10/25 12:34:12;;;;;;;0.77;0.77;;;15.70;99.90;;;;;;4963093;28;20649;-33
2023/10/25 12:36:38;;;;;;;1.00;0.87;;;15.70;99.90;;;;;;4965635;28;20180;-37
2023/10/25 12:39:05;;;;;;;3.15;0.82;;;15.70;99.90;;;;;;4962578;28;20183;-36
2023/10/25 12:41:36;;;;;;;1.10;1.00;;;15.70;99.90;;;;;;4966373;28;20219;-36
2023/10/25 12:44:08;;;;;;;1.23;0.82;;;15.70;99.90;;;;;;4973234;28;20199;-36
2023/10/25 12:46:35;;;;;;;1.60;0.90;;;15.70;99.90;;;;;;4976120;28;20208;-35
2023/10/25 12:49:03;;;;;;;2.70;0.77;;;15.90;99.90;;;;;;4990295;28;20180;-37
2023/10/25 12:51:37;;;;;;;2.15;0.88;;;16.00;99.90;;;;;;4967806;28;20211;-37
2023/10/25 12:54:08;;;;;;;1.17;0.90;;;16.10;99.90;;;;;;4970368;28;20196;-37
2023/10/25 12:56:37;;;;;;;1.60;0.90;;;16.20;99.90;;;;;;4970988;28;20219;-36
2023/10/25 12:59:06;;;;;;;1.48;0.95;;;16.20;99.90;;;;;;4960795;28;20188;-39
2023/10/25 13:01:32;;;;;;;2.50;1.20;;;16.10;99.90;;;;;;4954841;28;20214;-38
2023/10/25 13:03:58;;;;;;;1.75;1.20;;;16.00;99.90;;;;;;4975350;28;20271;-38
2023/10/25 13:06:26;;;;;;;2.90;1.30;;;16.00;99.90;;;;;;4973084;28;20246;-35
2023/10/25 13:08:55;;;;;;;2.63;1.50;;;16.00;99.90;;;;;;4964181;28;20203;-38
2023/10/25 13:11:21;;;;;;;1.60;1.20;;;15.90;99.90;;;;;;4965059;28;20202;-34
2023/10/25 13:13:47;;;;;;;1.17;1.00;;;15.80;99.90;;;;;;4959881;28;20235;-37
2023/10/25 13:16:13;;;;;;;1.63;0.90;;;15.70;99.90;;;;;;4973746;28;20180;-35
2023/10/25 13:18:40;;;;;;;1.20;0.93;;;15.70;99.90;;;;;;4941759;28;20191;-34
2023/10/25 13:21:06;;;;;;;1.40;0.85;;;15.70;99.90;;;;;;4959101;28;20521;-36
2023/10/25 13:23:35;;;;;;;1.02;0.93;;;15.60;99.90;;;;;;4976366;28;20192;-38
2023/10/25 13:26:03;;;;;;;1.77;0.90;;;15.50;99.90;;;;;;4946935;28;20299;-38
2023/10/25 13:28:34;;;;;;;1.53;1.07;;;15.40;99.90;;;;;;4978669;28;20239;-37
2023/10/25 13:31:04;;;;;;;1.60;1.07;;;15.30;99.90;;;;;;4947748;28;20196;-37
2023/10/25 13:33:32;;;;;;;1.50;1.30;;;15.20;99.90;;;;;;4956247;28;20187;-35
2023/10/25 13:35:59;;;;;;;2.57;1.23;;;15.10;99.90;;;;;;4951548;28;20193;-36
2023/10/25 13:38:25;;;;;;;2.63;1.10;;;15.00;99.90;;;;;;4954435;28;20187;-34
2023/10/25 13:40:53;;;;;;;1.27;1.10;;;14.90;99.90;;;;;;4951894;28;20218;-37
2023/10/25 13:43:21;;;;;;;2.83;1.70;;;14.90;99.90;;;;;;4969156;28;20176;-39
2023/10/25 13:45:48;;;;;;;2.10;1.40;;;14.90;99.90;;;;;;4987036;28;20235;-36
2023/10/25 13:48:14;;;;;;;3.27;1.80;;;14.80;99.90;;;;;;4982079;28;20176;-32
2023/10/25 13:50:41;;;;;;;2.40;1.70;;;14.90;99.90;;;;;;4951038;28;20243;-38
2023/10/25 13:53:07;;;;;;;1.97;1.60;;;14.90;99.90;;;;;;4983984;28;20184;-37
2023/10/25 13:55:39;;;;;;;3.40;1.37;;;15.10;99.90;;;;;;4961521;28;20192;-40
2023/10/25 13:58:13;;;;;;;1.80;1.37;;;15.40;99.90;;;;;;4941896;28;20214;-39
2023/10/25 14:00:39;;;;;;;2.40;1.60;;;15.60;99.90;;;;;;4949816;28;20239;-38
2023/10/25 14:03:05;;;;;;;2.47;1.20;;;15.60;99.90;;;;;;4965135;28;20270;-33
2023/10/25 14:05:33;;;;;;;1.43;1.33;;;15.40;99.90;;;;;;4999287;28;20201;-38
2023/10/25 14:07:59;;;;;;;2.03;1.40;;;15.20;99.90;;;;;;4957376;28;20189;-34
2023/10/25 14:10:25;;;;;;;2.97;1.40;;;15.00;99.90;;;;;;4971071;28;20207;-37
2023/10/25 14:12:53;;;;;;;1.47;1.37;;;14.90;99.90;;;;;;4959472;28;20227;-39
2023/10/25 14:15:19;;;;;;;1.63;1.53;;;14.80;99.90;;;;;;4965576;28;20216;-38
2023/10/25 14:17:45;;;;;;;1.37;1.10;;;14.70;99.90;;;;;;4981439;28;20171;-41
2023/10/25 14:20:11;;;;;;;1.60;1.30;;;14.70;99.90;;;;;;4969610;28;20194;-39
2023/10/25 14:22:37;;;;;;;3.07;1.27;;;14.70;99.90;;;;;;4982263;28;20199;-33
2023/10/25 14:25:04;;;;;;;1.30;1.00;;;14.70;99.90;;;;;;4981214;28;20203;-40
2023/10/25 14:27:30;;;;;;;1.60;1.10;;;14.70;99.90;;;;;;4975034;28;20262;-37
2023/10/25 14:29:56;;;;;;;1.13;1.00;;;14.60;99.90;;;;;;4982616;28;20259;-36
2023/10/25 14:32:21;;;;;;;2.13;1.20;;;14.60;99.90;;;;;;4966000;28;20318;-36
2023/10/25 14:34:47;;;;;;;1.60;1.30;;;14.60;99.90;;;;;;4993962;28;20180;-39
2023/10/25 14:37:13;;;;;;;3.70;1.40;;;14.50;99.90;;;;;;4983838;28;20238;-38
2023/10/25 14:39:39;;;;;;;2.97;1.40;;;14.50;99.90;;;;;;4983056;28;20210;-38
2023/10/25 14:42:05;;;;;;;2.97;1.60;;;14.50;99.90;;;;;;4973056;28;20210;-39
2023/10/25 14:44:31;;;;;;;3.30;2.20;;;14.50;99.90;;;;;;4964721;28;20181;-38
2023/10/25 14:46:57;;;;;;;3.23;1.80;;;14.50;99.90;;;;;;4999876;28;20180;-35
2023/10/25 14:49:23;;;;;;;2.37;1.37;;;14.50;99.90;;;;;;4968793;28;20183;-37
2023/10/25 14:51:50;;;;;;;3.27;1.80;;;14.50;99.90;;;;;;4983178;28;20209;-37
2023/10/25 14:54:16;;;;;;;4.30;2.63;;;14.40;99.90;;;;;;4982187;28;20229;-33
2023/10/25 14:56:42;;;;;;;3.23;2.40;;;14.40;99.90;;;;;;4965379;28;20188;-33
2023/10/25 14:59:08;;;;;;;2.03;1.40;;;14.40;99.90;;;;;;4968766;28;20322;-34
2023/10/25 15:01:35;;;;;;;1.90;1.70;;;14.40;99.90;;;;;;4987484;28;20203;-34
2023/10/25 15:04:01;;;;;;;3.10;1.70;;;14.40;99.90;;;;;;4979431;28;20187;-36
2023/10/25 15:06:28;;;;;;;2.27;1.17;;;14.30;99.90;;;;;;4967247;28;20211;-40
2023/10/25 15:08:55;;;;;;;1.87;1.40;;;14.30;99.90;;;;;;4954332;28;20209;-37
2023/10/25 15:11:22;;;;;;;3.50;1.70;;;14.10;99.90;;;;;;4959041;28;20208;-33
2023/10/25 15:13:47;;;;;;;1.43;1.20;;;14.10;99.90;;;;;;4969228;28;20197;-39
2023/10/25 15:16:13;;;;;;;1.27;1.17;;;14.00;99.90;;;;;;4979032;28;20199;-38
2023/10/25 15:18:43;;;;;;;1.97;1.20;;;13.90;99.90;;;;;;4967189;28;20191;-36
2023/10/25 15:21:16;;;;;;;2.87;1.60;;;13.80;99.90;;;;;;4967519;28;20208;-40
2023/10/25 15:23:42;;;;;;;2.83;1.77;;;13.70;99.90;;;;;;4962406;28;20191;-37
2023/10/25 15:26:08;;;;;;;3.50;2.00;;;13.60;99.90;;;;;;4963898;28;20215;-36
2023/10/25 15:28:35;;;;;;;3.83;3.10;;;13.60;99.90;;;;;;4963227;28;20187;-36
2023/10/25 15:31:05;;;;;;;2.03;1.70;;;13.50;99.90;;;;;;4989392;28;20200;-38
2023/10/25 15:33:31;;;;;;;3.07;2.33;;;13.50;99.90;;;;;;4976700;28;20184;-36
2023/10/25 15:35:57;;;;;;;2.47;1.87;;;13.40;99.90;;;;;;4971482;28;20183;-37
2023/10/25 15:38:23;;;;;;;4.27;2.10;;;13.40;99.90;;;;;;4978742;28;20270;-38
2023/10/25 15:41:19;;;;;;;4.07;1.53;;;13.40;99.90;;;;;;4983293;28;20203;-39
2023/10/25 15:43:46;;;;;;;2.20;1.50;;;13.40;99.90;;;;;;4972947;28;20682;-37
2023/10/25 15:46:12;;;;;;;6.40;1.83;;;13.40;99.90;;;;;;4974478;28;20308;-39
2023/10/25 15:48:47;;;;;;;2.47;1.37;;;13.40;99.90;;;;;;4966410;28;20281;-37
2023/10/25 15:51:14;;;;;;;2.23;1.23;;;13.30;99.90;;;;;;4939234;28;20207;-38
2023/10/25 15:53:41;;;;;;;2.23;1.43;;;13.30;99.90;;;;;;4965135;28;20270;-36
2023/10/25 15:56:09;;;;;;;2.00;1.37;;;13.30;99.90;;;;;;4955098;28;20230;-36
2023/10/25 15:58:38;;;;;;;1.97;1.40;;;13.20;99.90;;;;;;4953295;28;20195;-39
2023/10/25 16:01:15;;;;;;;1.60;1.37;;;13.20;99.90;;;;;;4973429;28;20236;-36
2023/10/25 16:03:42;;;;;;;6.73;4.00;;;13.20;99.90;;;;;;4955410;28;20215;-35
2023/10/25 16:06:09;;;;;;;5.07;3.60;;;13.20;99.90;;;;;;4955089;28;20208;-37
2023/10/25 16:08:38;;;;;;;3.30;2.67;;;13.10;99.90;;;;;;4938980;28;20228;-37
2023/10/25 16:11:05;;;;;;;3.30;2.40;;;13.10;99.90;;;;;;4939002;28;20204;-38
2023/10/25 16:13:32;;;;;;;2.73;2.13;;;13.10;99.90;;;;;;4971342;28;20188;-35
2023/10/25 16:16:04;;;;;;;3.60;2.20;;;13.10;99.90;;;;;;4974181;28;20187;-35
2023/10/25 16:18:31;;;;;;;2.97;2.27;;;13.10;99.90;;;;;;4966791;28;20190;-38
2023/10/25 16:21:05;;;;;;;4.43;3.53;;;13.10;99.90;;;;;;4966925;28;20223;-40
2023/10/25 16:23:45;;;;;;;2.60;1.87;;;13.10;99.90;;;;;;4976843;28;20180;-38
2023/10/25 16:26:12;;;;;;;1.80;1.60;;;13.10;99.90;;;;;;4958162;28;20211;-37
2023/10/25 16:28:39;;;;;;;5.13;4.47;;;13.10;99.90;;;;;;4973425;28;20180;-35
2023/10/25 16:31:06;;;;;;;3.20;2.43;;;13.10;99.90;;;;;;4958741;28;20214;-36
2023/10/25 16:33:33;;;;;;;4.00;2.80;;;13.10;99.90;;;;;;4958141;28;20192;-37
2023/10/25 16:36:03;;;;;;;5.30;3.23;;;13.10;99.90;;;;;;4974368;28;20188;-39
2023/10/25 16:38:30;;;;;;;15.93;9.37;;;13.00;99.90;;;;;;4973932;28;20195;-38
2023/10/25 16:41:01;;;;;;;27.00;16.27;;;13.00;99.90;;;;;;4973815;28;20204;-37
2023/10/25 16:43:28;;;;;;;14.57;8.97;;;13.00;99.90;;;;;;4946819;28;20188;-37
2023/10/25 16:46:11;;;;;;;9.50;6.00;;;13.00;99.90;;;;;;4962661;28;20294;-40
2023/10/25 16:48:40;;;;;;;8.00;5.30;;;12.90;99.90;;;;;;4948230;28;20279;-38
2023/10/25 16:51:20;;;;;;;7.90;4.70;;;12.90;99.90;;;;;;4962488;28;20291;-38
2023/10/25 16:53:48;;;;;;;5.00;3.13;;;12.90;99.90;;;;;;4969272;28;20247;-37
2023/10/25 16:56:15;;;;;;;4.10;3.10;;;12.90;99.90;;;;;;4970876;28;20185;-38
2023/10/25 16:58:41;;;;;;;3.03;2.50;;;12.80;99.90;;;;;;4973996;28;20223;-39
2023/10/25 17:01:08;;;;;;;5.23;3.23;;;12.80;99.90;;;;;;5006144;28;20204;-34
2023/10/25 17:03:34;;;;;;;3.17;2.67;;;12.80;99.90;;;;;;5006280;28;20180;-37
2023/10/25 17:06:00;;;;;;;2.70;1.80;;;12.80;99.90;;;;;;4975010;28;20290;-36
2023/10/25 17:08:27;;;;;;;1.97;1.77;;;12.80;99.90;;;;;;4941418;28;20192;-37
2023/10/25 17:10:55;;;;;;;2.20;2.00;;;12.80;99.90;;;;;;4976754;28;20232;-38
2023/10/25 17:13:23;;;;;;;3.57;1.83;;;12.90;99.90;;;;;;4972361;28;20176;-37
2023/10/25 17:15:49;;;;;;;2.53;2.00;;;12.90;99.90;;;;;;4977771;28;20184;-41
2023/10/25 17:18:15;;;;;;;2.30;1.73;;;12.90;99.90;;;;;;4977411;28;20184;-39
2023/10/25 17:20:50;;;;;;;1.87;1.50;;;12.90;99.90;;;;;;4958680;28;20234;-39
2023/10/25 17:23:17;;;;;;;2.40;1.90;;;12.90;99.90;;;;;;4960942;28;20214;-39
2023/10/25 17:25:44;;;;;;;2.80;2.07;;;12.90;99.90;;;;;;4955392;28;20239;-41
2023/10/25 17:28:10;;;;;;;2.00;1.80;;;12.90;99.90;;;;;;4973695;28;20195;-41
2023/10/25 17:30:36;;;;;;;1.70;1.53;;;12.90;99.90;;;;;;4987531;28;20205;-33
2023/10/25 17:33:02;;;;;;;3.57;1.50;;;12.90;99.90;;;;;;4957948;28;20204;-35
2023/10/25 17:35:28;;;;;;;4.20;2.00;;;12.90;99.90;;;;;;4958642;28;20235;-36
2023/10/25 17:37:54;;;;;;;4.70;1.70;;;12.90;99.90;;;;;;4950743;28;20206;-34
2023/10/25 17:40:21;;;;;;;2.73;1.70;;;12.90;99.90;;;;;;4957119;28;20200;-42
2023/10/25 17:42:46;;;;;;;3.53;2.90;;;12.90;99.90;;;;;;4941924;28;20180;-42
2023/10/25 17:45:12;;;;;;;3.00;2.20;;;13.00;99.90;;;;;;4959532;28;20237;-41
2023/10/25 17:47:49;;;;;;;2.23;1.73;;;13.00;99.90;;;;;;4960845;28;20245;-41
2023/10/25 17:50:16;;;;;;;3.27;1.73;;;12.90;99.90;;;;;;4976779;28;20284;-38
2023/10/25 17:52:43;;;;;;;2.63;2.20;;;12.90;99.90;;;;;;4960938;28;20184;-38
2023/10/25 17:55:09;;;;;;;2.60;1.90;;;12.90;99.90;;;;;;4994639;28;20258;-38
2023/10/25 17:57:35;;;;;;;2.00;1.60;;;12.90;99.90;;;;;;4974075;28;20334;-40
2023/10/25 18:00:01;;;;;;;2.10;1.90;;;12.90;99.90;;;;;;4970159;28;20251;-40
2023/10/25 18:02:26;;;;;;;2.13;1.60;;;12.90;99.90;;;;;;4992027;28;20210;-41
2023/10/25 18:04:53;;;;;;;3.00;1.80;;;12.90;99.90;;;;;;5001268;28;20210;-39
2023/10/25 18:07:20;;;;;;;1.70;1.60;;;12.90;99.90;;;;;;4985974;28;20184;-37
2023/10/25 18:09:46;;;;;;;3.47;2.20;;;12.90;99.90;;;;;;4956782;28;20203;-39
2023/10/25 18:12:13;;;;;;;4.23;2.47;;;12.90;99.90;;;;;;4958545;28;20200;-41
2023/10/25 18:14:38;;;;;;;2.50;1.53;;;12.90;99.90;;;;;;4958943;28;20206;-41
2023/10/25 18:17:06;;;;;;;2.53;1.47;;;12.90;99.90;;;;;;4974836;28;20221;-41
2023/10/25 18:19:33;;;;;;;2.90;1.90;;;12.80;99.90;;;;;;4974373;28;20207;-41
2023/10/25 18:22:01;;;;;;;1.87;1.73;;;12.80;99.90;;;;;;4974644;28;20258;-38
2023/10/25 18:24:28;;;;;;;2.67;2.10;;;12.80;99.90;;;;;;4961671;28;20183;-38
2023/10/25 18:26:54;;;;;;;2.27;1.73;;;12.80;99.90;;;;;;4967697;28;20232;-40
2023/10/25 18:29:19;;;;;;;2.23;0.93;;;12.70;99.90;;;;;;4980477;28;20207;-41
2023/10/25 18:31:46;;;;;;;3.73;1.30;;;12.70;99.90;;;;;;4961715;28;20260;-41
2023/10/25 18:34:12;;;;;;;1.63;1.00;;;12.70;99.90;;;;;;4951496;28;20172;-41
2023/10/25 18:36:39;;;;;;;1.73;1.00;;;12.60;99.90;;;;;;4946268;28;20259;-41
2023/10/25 18:39:05;;;;;;;2.10;1.40;;;12.60;99.90;;;;;;4947705;28;20187;-41
2023/10/25 18:41:31;;;;;;;3.00;1.20;;;12.60;99.90;;;;;;4967229;28;20195;-42
2023/10/25 18:43:56;;;;;;;2.47;1.67;;;12.50;99.90;;;;;;4958654;28;20173;-41
2023/10/25 18:46:22;;;;;;;1.53;1.13;;;12.50;99.90;;;;;;4965878;28;20204;-36
2023/10/25 18:48:48;;;;;;;1.47;0.90;;;12.50;99.90;;;;;;4972128;28;20316;-39
2023/10/25 18:51:14;;;;;;;1.87;1.00;;;12.50;99.90;;;;;;4963165;28;20215;-41
2023/10/25 18:53:40;;;;;;;2.03;1.03;;;12.50;99.90;;;;;;4951988;28;20176;-41
2023/10/25 18:56:06;;;;;;;1.90;1.20;;;12.50;99.90;;;;;;4966638;28;20184;-41
2023/10/25 18:58:33;;;;;;;1.60;1.20;;;12.40;99.90;;;;;;4965254;28;20190;-42
2023/10/25 19:01:11;;;;;;;2.07;1.00;;;12.40;99.90;;;;;;4971297;28;20253;-38
2023/10/25 19:03:37;;;;;;;1.03;0.80;;;12.40;99.90;;;;;;4968085;28;20266;-41
2023/10/25 19:06:04;;;;;;;1.90;1.20;;;12.40;99.90;;;;;;4979770;28;20368;-41
2023/10/25 19:08:33;;;;;;;2.13;1.00;;;12.40;99.90;;;;;;4984366;28;20280;-41
2023/10/25 19:10:59;;;;;;;1.27;0.90;;;12.40;99.90;;;;;;4981423;28;20200;-41
2023/10/25 19:13:25;;;;;;;1.20;0.97;;;12.40;99.90;;;;;;4969049;28;20190;-41
2023/10/25 19:15:51;;;;;;;1.37;0.77;;;12.40;99.90;;;;;;4982542;28;20184;-41
2023/10/25 19:18:18;;;;;;;1.13;0.97;;;12.40;99.90;;;;;;4984262;28;20183;-41
2023/10/25 19:20:44;;;;;;;1.13;0.80;;;12.40;99.90;;;;;;4969155;28;20208;-41
2023/10/25 19:23:10;;;;;;;2.33;0.90;;;12.40;99.90;;;;;;4956505;28;20186;-40
2023/10/25 19:25:36;;;;;;;2.17;0.80;;;12.30;99.90;;;;;;4969203;28;20203;-41
2023/10/25 19:28:02;;;;;;;1.50;1.00;;;12.30;99.90;;;;;;4966958;28;20271;-41
2023/10/25 19:30:28;;;;;;;2.47;1.47;;;12.30;99.90;;;;;;4979140;28;20196;-39
2023/10/25 19:32:54;;;;;;;1.50;0.80;;;12.20;99.90;;;;;;4963331;28;20196;-42
2023/10/25 19:35:20;;;;;;;2.30;1.10;;;12.30;99.90;;;;;;4939838;28;20220;-41
2023/10/25 19:37:45;;;;;;;1.50;0.90;;;12.30;99.90;;;;;;4966074;28;20230;-37
2023/10/25 19:40:11;;;;;;;3.83;1.13;;;12.30;99.90;;;;;;4965575;28;20191;-40
2023/10/25 19:42:40;;;;;;;1.17;0.80;;;12.20;99.90;;;;;;4949754;28;20286;-40
2023/10/25 19:45:07;;;;;;;0.80;0.73;;;12.20;99.90;;;;;;4947415;28;20286;-41
2023/10/25 19:47:32;;;;;;;2.00;0.73;;;12.20;99.90;;;;;;4971064;28;20230;-41
2023/10/25 19:49:58;;;;;;;0.60;0.60;;;12.30;99.90;;;;;;4952167;28;20179;-40
2023/10/25 19:52:24;;;;;;;1.30;0.60;;;12.30;99.90;;;;;;4967107;28;20180;-39
2023/10/25 19:54:50;;;;;;;1.37;0.80;;;12.30;99.90;;;;;;4985817;28;20180;-41
2023/10/25 19:57:17;;;;;;;0.80;0.60;;;12.30;99.90;;;;;;4963677;28;20180;-41
2023/10/25 19:59:43;;;;;;;2.13;1.03;;;12.30;99.90;;;;;;4949458;28;20183;-37
2023/10/25 20:02:13;;;;;;;1.97;0.77;;;12.30;99.90;;;;;;4955211;28;20196;-42
2023/10/25 20:04:40;;;;;;;0.50;0.50;;;12.30;99.90;;;;;;4971801;28;20263;-40
2023/10/25 20:07:06;;;;;;;0.90;0.60;;;12.30;99.90;;;;;;4946894;28;20197;-41
2023/10/25 20:09:32;;;;;;;1.03;0.73;;;12.40;99.90;;;;;;4965132;28;20199;-41
2023/10/25 20:11:58;;;;;;;1.90;0.80;;;12.30;99.90;;;;;;4963768;28;20207;-41
2023/10/25 20:14:24;;;;;;;1.87;0.90;;;12.40;99.90;;;;;;4962967;28;20223;-40
2023/10/25 20:16:50;;;;;;;0.77;0.57;;;12.30;99.90;;;;;;4964612;28;20192;-40
2023/10/25 20:19:16;;;;;;;0.83;0.50;;;12.30;99.90;;;;;;4965155;28;20235;-33
2023/10/25 20:21:42;;;;;;;1.47;0.60;;;12.30;99.90;;;;;;4961072;28;20251;-39
2023/10/25 20:24:08;;;;;;;0.70;0.57;;;12.30;99.90;;;;;;4949445;28;20184;-40
2023/10/25 20:26:34;;;;;;;1.70;0.53;;;12.30;99.90;;;;;;4945863;28;20204;-40
2023/10/25 20:29:00;;;;;;;0.70;0.60;;;12.30;99.90;;;;;;4973021;28;20258;-39
2023/10/25 20:31:26;;;;;;;0.73;0.60;;;12.30;99.90;;;;;;4979623;28;20200;-41
2023/10/25 20:33:55;;;;;;;1.23;0.70;;;12.30;99.90;;;;;;4972771;28;20179;-40
2023/10/25 20:36:21;;;;;;;1.37;0.60;;;12.40;99.90;;;;;;4971226;28;20176;-41
2023/10/25 20:38:48;;;;;;;2.53;0.63;;;12.40;99.90;;;;;;4955072;28;20184;-39
2023/10/25 20:41:14;;;;;;;2.10;0.70;;;12.30;99.90;;;;;;4959645;28;20215;-41
2023/10/25 20:43:40;;;;;;;1.30;0.80;;;12.30;99.90;;;;;;4956310;28;20183;-41
2023/10/25 20:46:09;;;;;;;2.60;0.80;;;12.30;99.90;;;;;;4978364;28;20261;-38
2023/10/25 20:48:35;;;;;;;1.10;0.63;;;12.30;99.90;;;;;;4970395;28;20191;-41
2023/10/25 20:51:03;;;;;;;2.93;1.40;;;12.30;99.90;;;;;;4957684;28;20204;-39
2023/10/25 20:53:29;;;;;;;1.70;1.20;;;12.20;99.90;;;;;;4948376;28;20188;-42
2023/10/25 20:55:57;;;;;;;1.97;1.47;;;12.20;99.90;;;;;;4955188;28;20181;-41
2023/10/25 20:58:32;;;;;;;1.60;1.13;;;12.20;99.90;;;;;;4939537;28;20176;-40
2023/10/25 21:00:58;;;;;;;1.83;1.30;;;12.20;99.90;;;;;;4959944;28;20208;-41
2023/10/25 21:03:24;;;;;;;3.43;1.87;;;12.10;99.90;;;;;;4943223;28;20244;-41
2023/10/25 21:05:54;;;;;;;1.80;0.80;;;12.10;99.90;;;;;;4955940;28;20192;-40
2023/10/25 21:08:20;;;;;;;1.70;0.70;;;12.10;99.90;;;;;;4965423;28;20180;-41
2023/10/25 21:10:46;;;;;;;1.43;0.90;;;12.10;99.90;;;;;;4968052;28;20207;-41
2023/10/25 21:13:12;;;;;;;0.90;0.70;;;12.00;99.90;;;;;;4951149;28;20258;-39
2023/10/25 21:15:37;;;;;;;2.43;1.20;;;12.00;99.90;;;;;;4974239;28;20184;-41
2023/10/25 21:18:05;;;;;;;2.37;1.20;;;12.00;99.90;;;;;;4957668;28;20274;-40
2023/10/25 21:20:32;;;;;;;2.20;1.50;;;11.90;99.90;;;;;;4957554;28;20200;-41
2023/10/25 21:22:58;;;;;;;0.83;0.70;;;11.90;99.90;;;;;;5017030;23;20242;-33
2023/10/25 21:25:24;;;;;;;1.90;1.00;;;11.90;99.90;;;;;;5019622;28;20214;-33
2023/10/25 21:27:50;;;;;;;1.47;1.17;;;11.90;99.90;;;;;;5009826;28;20171;-33
2023/10/25 21:30:15;;;;;;;2.43;1.30;;;11.90;99.90;;;;;;5006513;28;20226;-33